Time;durP1;ratioP1;P1;durP2;ratioP2;P2;SDS_P1;SDS_P2;PMS_P1;PMS_P2;Temp;Humidity;BMP_temperature;BMP_pressure;BME280_temperature;BME280_humidity;BME280_pressure;Samples;Min_cycle;Max_cycle;Signal;HPM_P1;HPM_P2
2021/11/12 00:04:55;;;;;;;31.87;13.87;;;7.40;99.90;;;;;;5114404;28;20112;-76
2021/11/12 00:13:04;;;;;;;31.33;14.47;;;7.40;99.90;;;;;;5114761;28;20051;-73
2021/11/12 00:15:31;;;;;;;31.93;11.43;;;7.30;99.90;;;;;;5114345;28;20046;-76
2021/11/12 00:17:58;;;;;;;34.80;12.00;;;7.30;99.90;;;;;;5114502;28;20089;-75
2021/11/12 00:20:24;;;;;;;33.20;13.77;;;7.30;99.90;;;;;;5114233;28;20048;-74
2021/11/12 00:22:53;;;;;;;33.63;14.03;;;7.30;99.90;;;;;;5114421;28;20120;-74
2021/11/12 00:25:19;;;;;;;32.30;11.37;;;7.30;99.90;;;;;;5113675;28;20491;-73
2021/11/12 00:27:46;;;;;;;38.60;14.77;;;7.30;99.90;;;;;;5114303;28;20525;-72
2021/11/12 00:30:25;;;;;;;32.85;12.60;;;7.30;99.90;;;;;;5114096;28;20048;-73
2021/11/12 00:33:00;;;;;;;38.33;14.67;;;7.30;99.90;;;;;;5113958;28;20043;-72
2021/11/12 00:35:34;;;;;;;31.90;11.77;;;7.40;99.90;;;;;;5113842;28;20139;-72
2021/11/12 00:38:06;;;;;;;36.77;13.83;;;7.30;99.90;;;;;;5114134;28;20051;-72
2021/11/12 00:40:41;;;;;;;37.00;13.50;;;7.30;99.90;;;;;;5114063;28;20055;-71
2021/11/12 00:43:28;;;;;;;34.97;12.77;;;7.30;99.90;;;;;;5113495;28;20051;-73
2021/11/12 00:46:07;;;;;;;35.27;12.13;;;7.40;99.90;;;;;;5114011;28;20056;-71
2021/11/12 00:48:37;;;;;;;33.97;13.77;;;7.30;99.90;;;;;;5114088;28;20048;-73
2021/11/12 00:51:13;;;;;;;31.67;11.53;;;7.40;99.90;;;;;;5114108;28;20079;-72
2021/11/12 00:53:49;;;;;;;34.23;12.00;;;7.30;99.90;;;;;;5113438;28;20047;-72
2021/11/12 00:56:16;;;;;;;53.13;14.00;;;7.30;99.90;;;;;;5113878;28;20035;-72
2021/11/12 00:58:42;;;;;;;36.87;14.03;;;7.20;99.90;;;;;;5113707;28;20652;-73
2021/11/12 01:01:09;;;;;;;46.67;15.50;;;7.20;99.90;;;;;;5112858;28;20047;-73
2021/11/12 01:03:36;;;;;;;37.00;13.13;;;7.20;99.90;;;;;;5113130;28;20168;-72
2021/11/12 01:06:02;;;;;;;37.07;12.93;;;7.20;99.90;;;;;;5113448;28;20457;-73
2021/11/12 01:08:30;;;;;;;29.93;12.63;;;7.20;99.90;;;;;;5113703;28;20044;-74
2021/11/12 01:10:58;;;;;;;31.60;12.05;;;7.20;99.90;;;;;;5113492;28;20047;-75
2021/11/12 01:13:26;;;;;;;43.30;13.73;;;7.30;99.90;;;;;;5113120;28;20047;-74
2021/11/12 01:15:53;;;;;;;34.97;12.37;;;7.30;99.90;;;;;;5113215;28;20048;-74
2021/11/12 01:18:20;;;;;;;40.13;14.60;;;7.20;99.90;;;;;;5113158;28;20097;-73
2021/11/12 01:20:47;;;;;;;33.20;13.27;;;7.30;99.90;;;;;;5113044;28;20051;-70
2021/11/12 01:23:14;;;;;;;45.20;15.07;;;7.20;99.90;;;;;;5112749;28;20055;-73
2021/11/12 01:25:41;;;;;;;35.07;12.93;;;7.30;99.90;;;;;;5113343;28;20039;-73
2021/11/12 01:28:10;;;;;;;28.30;12.03;;;7.20;99.90;;;;;;5113031;28;20495;-73
2021/11/12 01:30:37;;;;;;;38.83;11.90;;;7.30;99.90;;;;;;5112840;28;20097;-71
2021/11/12 01:33:04;;;;;;;34.00;13.77;;;7.20;99.90;;;;;;5112902;28;20487;-75
2021/11/12 01:35:31;;;;;;;47.07;12.80;;;7.30;99.90;;;;;;5112485;28;20547;-74
2021/11/12 01:37:59;;;;;;;53.03;13.53;;;7.30;99.90;;;;;;5112985;28;20058;-76
2021/11/12 01:40:27;;;;;;;42.23;14.23;;;7.20;99.90;;;;;;5112783;28;20078;-74
2021/11/12 01:43:00;;;;;;;42.40;13.03;;;7.20;99.90;;;;;;5112796;28;20043;-74
2021/11/12 01:45:37;;;;;;;35.33;12.80;;;7.20;99.90;;;;;;5112365;28;20103;-74
2021/11/12 01:48:16;;;;;;;32.43;12.93;;;7.20;99.90;;;;;;5112677;28;20043;-74
2021/11/12 01:50:46;;;;;;;39.23;12.17;;;7.20;99.90;;;;;;5112553;28;20126;-74
2021/11/12 01:53:25;;;;;;;35.73;13.83;;;7.20;99.90;;;;;;5112097;28;20047;-74
2021/11/12 01:56:00;;;;;;;37.83;12.60;;;7.20;99.90;;;;;;5112704;28;20055;-76
2021/11/12 01:58:38;;;;;;;36.70;12.77;;;7.10;99.90;;;;;;5112324;28;20561;-74
2021/11/12 02:01:06;;;;;;;61.87;13.70;;;7.10;99.90;;;;;;5112619;28;20075;-74
2021/11/12 02:03:33;;;;;;;38.93;15.47;;;7.10;99.90;;;;;;5111997;28;20048;-75
2021/11/12 02:06:00;;;;;;;52.43;13.63;;;7.10;99.90;;;;;;5112489;28;20100;-73
2021/11/12 02:08:26;;;;;;;38.37;13.67;;;7.10;99.90;;;;;;5112388;28;20569;-76
2021/11/12 02:10:53;;;;;;;50.80;16.33;;;7.10;99.90;;;;;;5112191;28;20044;-74
2021/11/12 02:13:21;;;;;;;36.55;14.23;;;7.10;99.90;;;;;;5111854;28;20101;-74
2021/11/12 02:15:48;;;;;;;37.47;13.63;;;7.10;99.90;;;;;;5112544;28;20536;-72
2021/11/12 02:18:26;;;;;;;38.27;12.93;;;7.20;99.90;;;;;;5111177;28;20046;-71
2021/11/12 02:20:59;;;;;;;51.75;13.32;;;7.20;99.90;;;;;;5112899;28;20051;-72
2021/11/12 02:23:32;;;;;;;47.10;15.63;;;7.10;99.90;;;;;;5112796;28;20055;-72
2021/11/12 02:25:58;;;;;;;41.27;13.37;;;7.00;99.90;;;;;;5113365;28;20052;-72
2021/11/12 02:28:27;;;;;;;47.07;17.03;;;7.10;99.90;;;;;;5113074;28;20039;-74
2021/11/12 02:30:54;;;;;;;70.10;14.63;;;7.10;99.90;;;;;;5113452;28;20047;-77
2021/11/12 02:33:22;;;;;;;41.57;13.17;;;7.10;99.90;;;;;;5112413;28;20073;-76
2021/11/12 02:36:03;;;;;;;62.83;14.23;;;7.10;99.90;;;;;;5113270;28;20101;-75
2021/11/12 02:38:31;;;;;;;54.60;13.67;;;7.10;99.90;;;;;;5113215;28;20052;-75
2021/11/12 02:40:59;;;;;;;41.85;14.90;;;7.10;99.90;;;;;;5113016;28;20054;-74
2021/11/12 02:43:25;;;;;;;44.00;15.53;;;7.10;99.90;;;;;;5112370;28;20070;-74
2021/11/12 02:45:53;;;;;;;43.93;12.37;;;7.10;99.90;;;;;;5113041;28;20044;-73
2021/11/12 02:48:20;;;;;;;44.63;15.00;;;7.10;99.90;;;;;;5112397;28;20048;-74
2021/11/12 02:50:47;;;;;;;55.07;13.40;;;7.10;99.90;;;;;;5112452;28;20044;-73
2021/11/12 02:53:16;;;;;;;45.13;14.63;;;7.10;99.90;;;;;;5112348;28;20046;-72
2021/11/12 02:55:44;;;;;;;46.63;13.83;;;7.10;99.90;;;;;;5112754;28;20491;-72
2021/11/12 02:58:12;;;;;;;51.53;15.77;;;7.00;99.90;;;;;;5113165;28;20040;-74
2021/11/12 03:00:40;;;;;;;56.07;15.27;;;7.10;99.90;;;;;;5112569;28;20388;-73
2021/11/12 03:03:07;;;;;;;38.70;15.47;;;7.10;99.90;;;;;;5112620;28;20039;-74
2021/11/12 03:05:35;;;;;;;42.37;14.57;;;7.10;99.90;;;;;;5113138;28;20090;-75
2021/11/12 03:08:02;;;;;;;39.53;15.23;;;7.10;99.90;;;;;;5112435;28;20040;-74
2021/11/12 03:10:31;;;;;;;57.00;13.07;;;7.10;99.90;;;;;;5111568;28;20048;-74
2021/11/12 03:12:58;;;;;;;46.10;13.40;;;7.10;99.90;;;;;;5111716;28;20100;-72
2021/11/12 03:15:24;;;;;;;45.93;14.00;;;7.10;99.90;;;;;;5111012;28;20419;-71
2021/11/12 03:17:56;;;;;;;89.37;17.17;;;7.00;99.90;;;;;;5111680;28;20044;-72
2021/11/12 03:20:24;;;;;;;53.80;15.85;;;7.00;99.90;;;;;;5111661;28;20047;-72
2021/11/12 03:22:54;;;;;;;45.33;14.05;;;7.00;99.90;;;;;;5111585;28;20044;-72
2021/11/12 03:25:28;;;;;;;50.13;14.87;;;7.00;99.90;;;;;;5114138;28;20047;-72
2021/11/12 03:28:07;;;;;;;53.13;14.50;;;7.10;99.90;;;;;;5115391;28;20055;-74
2021/11/12 03:49:36;;;;;;;41.53;14.53;;;7.10;99.90;;;;;;5115205;28;20093;-71
2021/11/12 04:03:53;;;;;;;;;;;7.10;99.90;;;;;;5114302;28;20434;-72
2021/11/12 04:06:30;;;;;;;47.50;12.83;;;7.00;99.90;;;;;;5114804;28;19923;-71
2021/11/12 04:17:31;;;;;;;53.87;14.90;;;7.00;99.90;;;;;;5096418;28;20047;-72
2021/11/12 04:31:15;;;;;;;46.53;17.23;;;7.00;99.90;;;;;;5114016;28;20570;-73
2021/11/12 05:34:57;;;;;;;53.17;16.30;;;7.20;99.90;;;;;;5112602;28;20097;-71
2021/11/12 05:51:23;;;;;;;47.77;15.93;;;7.00;99.90;;;;;;5112563;28;20054;-73
2021/11/12 05:56:35;;;;;;;42.67;16.87;;;7.00;99.90;;;;;;5112729;28;20174;-72
2021/11/12 05:59:02;;;;;;;48.63;17.07;;;7.10;99.90;;;;;;5112351;28;20104;-73
2021/11/12 06:01:31;;;;;;;49.77;19.13;;;7.10;99.90;;;;;;5112546;28;20040;-75
2021/11/12 06:03:57;;;;;;;43.10;14.93;;;7.10;99.90;;;;;;5112002;28;20090;-73
2021/11/12 06:06:24;;;;;;;48.13;18.30;;;7.10;99.90;;;;;;5112425;28;20092;-72
2021/11/12 06:08:51;;;;;;;42.40;16.17;;;7.10;99.90;;;;;;5112408;28;20133;-73
2021/11/12 06:11:18;;;;;;;43.80;16.77;;;7.10;99.90;;;;;;5112166;28;20043;-74
2021/11/12 06:13:46;;;;;;;43.77;16.83;;;7.00;99.90;;;;;;5111736;28;20100;-72
2021/11/12 06:16:13;;;;;;;57.90;17.00;;;7.00;99.90;;;;;;5111988;28;20040;-73
2021/11/12 06:18:39;;;;;;;50.37;17.50;;;7.10;99.90;;;;;;5111945;28;20075;-71
2021/11/12 06:21:08;;;;;;;46.83;16.70;;;7.10;99.90;;;;;;5112502;28;20097;-76
2021/11/12 06:23:36;;;;;;;50.70;17.80;;;7.10;99.90;;;;;;5112419;28;20104;-75
2021/11/12 06:26:03;;;;;;;51.23;15.13;;;7.00;99.90;;;;;;5112302;28;20427;-73
2021/11/12 06:28:31;;;;;;;51.20;15.93;;;7.00;99.90;;;;;;5112163;28;20230;-74
2021/11/12 06:31:00;;;;;;;59.73;19.13;;;7.00;99.90;;;;;;5111995;28;20580;-73
2021/11/12 06:33:27;;;;;;;54.60;19.33;;;7.00;99.90;;;;;;5111781;28;20040;-72
2021/11/12 06:35:54;;;;;;;46.37;19.17;;;7.00;99.90;;;;;;5111850;28;20345;-72
2021/11/12 06:38:24;;;;;;;57.50;16.37;;;7.00;99.90;;;;;;5112359;28;20063;-75
2021/11/12 06:40:51;;;;;;;49.60;16.07;;;7.00;99.90;;;;;;5112027;28;20055;-75
2021/11/12 06:43:24;;;;;;;51.93;18.10;;;6.90;99.90;;;;;;5111474;28;20055;-74
2021/11/12 06:51:23;;;;;;;47.27;17.63;;;6.90;99.90;;;;;;5112272;28;20061;-76
2021/11/12 06:53:56;;;;;;;51.67;18.48;;;6.90;99.90;;;;;;5112397;28;20079;-77
2021/11/12 06:56:23;;;;;;;71.50;24.87;;;7.00;99.90;;;;;;5113646;28;20079;-75
2021/11/12 06:58:51;;;;;;;49.30;18.10;;;7.00;99.90;;;;;;5112382;28;20441;-74
2021/11/12 07:01:18;;;;;;;50.55;17.35;;;7.00;99.90;;;;;;5117000;28;20089;-74
2021/11/12 07:03:47;;;;;;;40.27;17.90;;;7.10;99.90;;;;;;5116151;28;20046;-76
2021/11/12 07:06:14;;;;;;;58.17;18.42;;;7.00;99.90;;;;;;5116307;28;20039;-74
2021/11/12 07:08:40;;;;;;;48.87;19.67;;;7.00;99.90;;;;;;5116070;28;20126;-71
2021/11/12 07:11:08;;;;;;;59.17;19.80;;;6.90;99.90;;;;;;5116849;28;20113;-72
2021/11/12 07:13:34;;;;;;;52.73;18.43;;;6.90;99.90;;;;;;5117163;28;20052;-73
2021/11/12 07:16:01;;;;;;;63.03;20.37;;;6.90;99.90;;;;;;5115624;28;20380;-72
2021/11/12 07:18:29;;;;;;;62.17;20.27;;;7.00;99.90;;;;;;5115865;28;20134;-72
2021/11/12 07:20:58;;;;;;;59.97;19.17;;;7.00;99.90;;;;;;5115448;28;20495;-72
2021/11/12 07:23:26;;;;;;;56.30;19.47;;;7.00;99.90;;;;;;5115432;28;20514;-73
2021/11/12 07:25:55;;;;;;;60.63;20.03;;;7.00;99.90;;;;;;5115977;28;20491;-72
2021/11/12 07:28:24;;;;;;;49.87;18.40;;;7.00;99.90;;;;;;5115475;28;20039;-72
2021/11/12 07:30:51;;;;;;;53.47;17.47;;;7.10;99.90;;;;;;5115247;28;20066;-72
2021/11/12 07:33:18;;;;;;;61.73;17.93;;;7.00;99.90;;;;;;5114707;28;20522;-72
2021/11/12 07:35:49;;;;;;;63.33;18.63;;;7.10;99.90;;;;;;5115171;28;20055;-72
2021/11/12 07:38:22;;;;;;;58.13;17.37;;;7.10;99.90;;;;;;5115449;28;20051;-71
2021/11/12 07:41:11;;;;;;;66.83;18.23;;;7.10;99.90;;;;;;5115242;28;20051;-70
2021/11/12 07:46:33;;;;;;;64.65;19.40;;;7.10;99.90;;;;;;5115069;28;20071;-72
2021/11/12 07:49:00;;;;;;;60.83;19.23;;;7.20;99.90;;;;;;5115042;28;20078;-72
2021/11/12 07:51:27;;;;;;;54.83;17.80;;;7.20;99.90;;;;;;5115291;28;20062;-73
2021/11/12 07:53:56;;;;;;;62.60;21.23;;;7.30;99.90;;;;;;5114532;28;20498;-76
2021/11/12 07:56:24;;;;;;;58.67;17.90;;;7.30;99.90;;;;;;5115264;28;20446;-75
2021/11/12 07:58:51;;;;;;;70.07;20.33;;;7.30;99.90;;;;;;5114970;28;20090;-72
2021/11/12 08:01:18;;;;;;;66.10;19.10;;;7.30;99.90;;;;;;5114877;28;20059;-72
2021/11/12 08:03:46;;;;;;;60.00;21.08;;;7.30;99.90;;;;;;5114342;28;20112;-75
2021/11/12 08:06:16;;;;;;;72.60;21.23;;;7.40;99.90;;;;;;5114680;28;20086;-73
2021/11/12 08:08:47;;;;;;;53.20;17.80;;;7.30;99.90;;;;;;5114843;28;20051;-70
2021/11/12 08:11:18;;;;;;;61.22;17.70;;;7.30;99.90;;;;;;5114211;28;20079;-71
2021/11/12 08:13:49;;;;;;;72.43;19.63;;;7.40;99.90;;;;;;5114234;28;20064;-71
2021/11/12 08:16:32;;;;;;;50.70;17.10;;;7.40;99.90;;;;;;5114996;28;20047;-75
2021/11/12 08:19:01;;;;;;;66.57;20.47;;;7.50;99.90;;;;;;5114611;28;20048;-74
2021/11/12 08:21:34;;;;;;;69.68;19.45;;;7.50;99.90;;;;;;5114191;28;20043;-72
2021/11/12 08:24:09;;;;;;;66.67;18.30;;;7.40;99.90;;;;;;5113925;28;20469;-72
2021/11/12 08:26:47;;;;;;;100.20;22.43;;;7.40;99.90;;;;;;5114213;28;20071;-74
2021/11/12 08:29:31;;;;;;;72.27;21.07;;;7.40;99.90;;;;;;5114541;28;20151;-72
2021/11/12 08:34:58;;;;;;;52.30;16.10;;;7.50;99.90;;;;;;5088174;28;20152;-72
2021/11/12 08:40:13;;;;;;;63.20;17.93;;;7.50;99.90;;;;;;5111716;28;20048;-72
2021/11/12 08:42:45;;;;;;;60.83;18.90;;;7.60;99.90;;;;;;5114059;28;20056;-71
2021/11/12 08:45:17;;;;;;;49.05;13.90;;;7.60;99.90;;;;;;5113752;28;20062;-71
2021/11/12 08:47:46;;;;;;;59.80;16.58;;;7.60;99.90;;;;;;5114031;28;20142;-72
2021/11/12 08:50:16;;;;;;;63.20;16.15;;;7.60;99.90;;;;;;5113921;28;20464;-71
2021/11/12 08:52:44;;;;;;;51.45;15.48;;;7.70;99.90;;;;;;5113628;28;20116;-72
2021/11/12 08:55:11;;;;;;;44.73;15.53;;;7.70;99.90;;;;;;5113562;28;20048;-70
2021/11/12 08:57:38;;;;;;;44.43;17.50;;;7.80;99.90;;;;;;5113580;28;20089;-71
2021/11/12 09:00:10;;;;;;;45.85;16.30;;;7.90;99.90;;;;;;5113521;28;20069;-74
2021/11/12 09:02:38;;;;;;;34.78;12.93;;;7.90;99.90;;;;;;5113561;28;20043;-74
2021/11/12 09:05:07;;;;;;;36.90;14.88;;;8.00;99.90;;;;;;5113254;28;20399;-76
2021/11/12 09:07:35;;;;;;;42.45;14.88;;;8.00;99.90;;;;;;5113727;28;20047;-74
2021/11/12 09:10:02;;;;;;;35.05;14.90;;;8.10;99.90;;;;;;5114990;28;20047;-77
2021/11/12 09:12:30;;;;;;;33.78;12.77;;;8.10;99.90;;;;;;5114947;28;20101;-74
2021/11/12 09:14:58;;;;;;;38.20;15.07;;;8.20;99.90;;;;;;5112832;28;20043;-72
2021/11/12 09:17:30;;;;;;;36.03;12.82;;;8.30;99.90;;;;;;5113374;28;20127;-75
2021/11/12 09:20:00;;;;;;;34.10;13.18;;;8.30;99.90;;;;;;5112979;28;20089;-75
2021/11/12 09:22:31;;;;;;;26.25;11.90;;;8.40;99.90;;;;;;5112898;28;20062;-75
2021/11/12 09:24:58;;;;;;;37.42;14.80;;;8.30;99.90;;;;;;5113030;28;20131;-75
2021/11/12 09:27:26;;;;;;;29.17;11.80;;;8.30;99.90;;;;;;5114110;28;20176;-75
2021/11/12 09:29:53;;;;;;;30.65;12.15;;;8.30;99.90;;;;;;5113812;28;20134;-75
2021/11/12 09:32:20;;;;;;;29.20;13.73;;;8.40;99.90;;;;;;5112897;28;20050;-76
2021/11/12 09:34:49;;;;;;;28.00;11.52;;;8.30;99.90;;;;;;5112607;28;20515;-76
2021/11/12 09:37:21;;;;;;;33.80;13.80;;;8.30;99.90;;;;;;5113678;28;20099;-77
2021/11/12 09:39:53;;;;;;;30.52;12.52;;;8.40;99.90;;;;;;5113145;28;20510;-73
2021/11/12 09:42:21;;;;;;;33.33;12.20;;;8.60;99.90;;;;;;5113191;28;20431;-71
2021/11/12 09:44:48;;;;;;;25.42;11.80;;;8.60;99.90;;;;;;5112149;28;20632;-73
2021/11/12 09:47:22;;;;;;;31.30;13.88;;;8.60;99.90;;;;;;5112669;28;20044;-76
2021/11/12 09:49:51;;;;;;;30.98;13.80;;;8.70;99.90;;;;;;5112485;28;20128;-71
2021/11/12 09:52:18;;;;;;;31.08;13.23;;;8.70;99.90;;;;;;5112561;28;20047;-72
2021/11/12 09:54:45;;;;;;;37.30;13.10;;;8.70;99.90;;;;;;5112217;28;20050;-74
2021/11/12 09:57:14;;;;;;;26.60;11.40;;;8.90;99.90;;;;;;5112251;28;20050;-73
2021/11/12 09:59:41;;;;;;;26.15;11.50;;;9.00;99.90;;;;;;5112647;28;20146;-74
2021/11/12 10:02:11;;;;;;;25.05;11.45;;;9.00;99.90;;;;;;5112522;28;20059;-72
2021/11/12 10:04:39;;;;;;;24.25;12.18;;;9.00;99.90;;;;;;5112095;28;20054;-72
2021/11/12 10:07:13;;;;;;;25.83;13.27;;;9.10;99.90;;;;;;5112606;28;20130;-74
2021/11/12 10:09:40;;;;;;;29.27;12.30;;;9.10;99.90;;;;;;5112542;28;20054;-71
2021/11/12 10:12:09;;;;;;;28.45;11.75;;;9.10;99.90;;;;;;5112243;28;20054;-72
2021/11/12 10:14:40;;;;;;;24.30;11.45;;;9.10;99.90;;;;;;5111986;28;20138;-73
2021/11/12 10:17:09;;;;;;;27.48;12.38;;;9.10;99.90;;;;;;5112590;28;20048;-74
2021/11/12 10:19:42;;;;;;;25.88;12.40;;;9.10;99.90;;;;;;5112341;28;20051;-72
2021/11/12 10:22:10;;;;;;;28.20;11.10;;;8.90;99.90;;;;;;5112488;28;20138;-73
2021/11/12 10:24:40;;;;;;;26.27;12.90;;;8.60;99.90;;;;;;5111572;28;20051;-73
2021/11/12 10:27:10;;;;;;;31.13;14.13;;;8.60;99.90;;;;;;5112550;28;20517;-74
2021/11/12 10:29:44;;;;;;;30.02;11.40;;;8.60;99.90;;;;;;5112358;28;20165;-77
2021/11/12 10:32:12;;;;;;;30.95;12.77;;;8.60;99.90;;;;;;5112281;28;20044;-74
2021/11/12 10:34:41;;;;;;;23.95;11.70;;;8.50;99.90;;;;;;5110678;28;20044;-72
2021/11/12 10:37:11;;;;;;;25.20;11.25;;;8.40;99.90;;;;;;5111755;28;20071;-73
2021/11/12 10:39:40;;;;;;;19.58;8.88;;;8.30;99.90;;;;;;5112160;28;20046;-72
2021/11/12 10:42:10;;;;;;;23.35;10.05;;;8.30;99.90;;;;;;5112461;28;20051;-72
2021/11/12 10:44:41;;;;;;;21.35;9.55;;;8.20;99.90;;;;;;5111641;28;20101;-72
2021/11/12 10:47:09;;;;;;;29.05;11.77;;;8.20;99.90;;;;;;5112258;28;20064;-70
2021/11/12 10:49:38;;;;;;;19.52;10.38;;;8.20;99.90;;;;;;5111778;28;20073;-70
2021/11/12 10:52:10;;;;;;;22.92;11.05;;;8.20;99.90;;;;;;5111991;28;20047;-74
2021/11/12 10:54:49;;;;;;;21.23;11.25;;;8.30;99.90;;;;;;5111587;28;20048;-70
2021/11/12 10:57:17;;;;;;;22.10;12.05;;;8.30;99.90;;;;;;5113269;28;20097;-72
2021/11/12 11:00:00;;;;;;;19.75;10.63;;;8.30;99.90;;;;;;5115511;28;20044;-73
2021/11/12 11:02:29;;;;;;;21.13;9.18;;;8.40;99.90;;;;;;5111998;28;20122;-73
2021/11/12 11:04:59;;;;;;;18.85;10.40;;;8.50;99.90;;;;;;5111685;28;20473;-73
2021/11/12 11:07:28;;;;;;;19.08;9.93;;;8.50;99.90;;;;;;5111944;28;20101;-73
2021/11/12 11:09:57;;;;;;;20.73;8.95;;;8.50;99.90;;;;;;5111615;28;20043;-72
2021/11/12 11:12:38;;;;;;;21.90;10.95;;;8.50;99.90;;;;;;5111348;28;20052;-73
2021/11/12 11:15:28;;;;;;;21.13;10.63;;;8.40;99.90;;;;;;5111230;28;20083;-73
2021/11/12 11:18:20;;;;;;;16.48;8.02;;;8.40;99.90;;;;;;5111937;28;20552;-72
2021/11/12 11:20:49;;;;;;;12.77;6.75;;;8.40;99.90;;;;;;5111485;28;20059;-72
2021/11/12 11:23:17;;;;;;;15.57;7.20;;;8.40;99.90;;;;;;5111516;28;20062;-72
2021/11/12 11:25:52;;;;;;;16.15;7.90;;;8.40;99.90;;;;;;5111762;28;20062;-72
2021/11/12 11:28:19;;;;;;;17.27;9.13;;;8.50;99.90;;;;;;5112741;28;20105;-72
2021/11/12 11:30:47;;;;;;;13.63;6.95;;;8.70;99.90;;;;;;5111588;28;20415;-72
2021/11/12 11:33:15;;;;;;;18.95;9.27;;;8.90;99.90;;;;;;5111024;28;20048;-74
2021/11/12 11:35:44;;;;;;;14.40;8.57;;;8.90;99.90;;;;;;5111533;28;20488;-74
2021/11/12 11:38:13;;;;;;;14.90;7.25;;;8.90;99.90;;;;;;5111984;28;20100;-71
2021/11/12 11:40:41;;;;;;;15.88;7.50;;;8.90;99.90;;;;;;5114216;28;20070;-73
2021/11/12 11:43:10;;;;;;;15.50;8.38;;;8.90;99.90;;;;;;5112860;28;20101;-74
2021/11/12 11:45:38;;;;;;;16.17;7.85;;;9.00;99.90;;;;;;5113142;28;20047;-73
2021/11/12 11:48:05;;;;;;;12.40;7.07;;;9.00;99.90;;;;;;5115108;28;20143;-73
2021/11/12 11:50:33;;;;;;;15.68;8.98;;;9.00;99.90;;;;;;5114966;28;20070;-72
2021/11/12 11:53:23;;;;;;;18.20;8.70;;;9.10;99.90;;;;;;5115108;28;20048;-74
2021/11/12 11:55:52;;;;;;;18.30;10.35;;;9.00;99.90;;;;;;5115071;28;20051;-73
2021/11/12 11:58:41;;;;;;;17.73;9.05;;;9.10;99.90;;;;;;5114895;28;20077;-73
2021/11/12 12:01:37;;;;;;;16.33;9.70;;;9.10;99.90;;;;;;5115036;28;20085;-73
2021/11/12 12:04:35;;;;;;;18.58;8.55;;;9.00;99.90;;;;;;5114397;28;20047;-73
2021/11/12 12:07:18;;;;;;;13.90;8.55;;;9.00;99.90;;;;;;5114844;28;20504;-72
2021/11/12 12:09:48;;;;;;;14.98;9.25;;;8.90;99.90;;;;;;5114729;28;20051;-74
2021/11/12 12:12:16;;;;;;;14.82;8.23;;;8.80;99.90;;;;;;5114920;28;20044;-76
2021/11/12 12:14:45;;;;;;;12.60;7.82;;;8.80;99.90;;;;;;5114701;28;20139;-76
2021/11/12 12:17:13;;;;;;;13.98;8.25;;;8.80;99.90;;;;;;5114714;28;20043;-76
2021/11/12 12:19:43;;;;;;;13.85;9.15;;;8.80;99.90;;;;;;5114464;28;20101;-75
2021/11/12 13:22:40;;;;;;;23.60;10.35;;;9.00;99.90;;;;;;5111034;28;20101;-74
2021/11/12 13:25:10;;;;;;;15.98;9.48;;;9.00;99.90;;;;;;5110812;28;20081;-77
2021/11/12 13:27:37;;;;;;;15.23;8.75;;;8.90;99.90;;;;;;5110527;28;20048;-75
2021/11/12 13:30:06;;;;;;;14.13;9.15;;;8.90;99.90;;;;;;5110169;28;20093;-75
2021/11/12 13:32:38;;;;;;;13.88;8.85;;;8.90;99.90;;;;;;5111169;28;20044;-73
2021/11/12 13:35:07;;;;;;;15.15;9.02;;;8.80;99.90;;;;;;5109616;28;20051;-76
2021/11/12 13:37:34;;;;;;;13.30;7.57;;;8.80;99.90;;;;;;5110446;28;20075;-74
2021/11/12 13:40:04;;;;;;;13.15;6.82;;;8.90;99.90;;;;;;5110034;27;20124;-75
2021/11/12 13:42:39;;;;;;;12.70;7.05;;;8.80;99.90;;;;;;5109066;28;20047;-75
2021/11/12 13:45:28;;;;;;;14.30;7.43;;;8.80;99.90;;;;;;5108483;28;20142;-76
2021/11/12 13:48:09;;;;;;;11.80;8.50;;;8.80;99.90;;;;;;5104558;28;20048;-75
2021/11/12 13:50:39;;;;;;;13.23;7.40;;;8.80;99.90;;;;;;5108873;28;20040;-75
2021/11/12 13:53:06;;;;;;;11.95;6.65;;;8.80;99.90;;;;;;5108885;28;20306;-77
2021/11/12 13:55:35;;;;;;;9.02;6.15;;;8.90;99.90;;;;;;5101541;28;20052;-75
2021/11/12 13:58:04;;;;;;;11.20;5.90;;;8.90;99.90;;;;;;5095667;28;20048;-75
2021/11/12 14:00:31;;;;;;;11.57;5.30;;;8.90;99.90;;;;;;5095591;28;20119;-76
2021/11/12 14:03:02;;;;;;;8.68;5.78;;;8.90;99.90;;;;;;5095329;28;20097;-74
2021/11/12 14:05:29;;;;;;;9.38;6.32;;;8.80;99.90;;;;;;5095391;28;20047;-74
2021/11/12 14:08:03;;;;;;;6.05;5.35;;;8.80;99.90;;;;;;5095320;28;20056;-74
2021/11/12 14:10:36;;;;;;;7.45;4.35;;;8.70;99.90;;;;;;5094915;28;20111;-74
2021/11/12 14:13:05;;;;;;;11.38;5.95;;;8.70;99.90;;;;;;5094911;28;20366;-74
2021/11/12 14:15:36;;;;;;;10.07;6.55;;;8.60;99.90;;;;;;5099971;28;20055;-75
2021/11/12 14:18:11;;;;;;;7.82;5.22;;;8.60;99.90;;;;;;5095224;28;20464;-74
2021/11/12 14:20:41;;;;;;;10.95;6.07;;;8.60;99.90;;;;;;5096233;28;20086;-74
2021/11/12 14:23:13;;;;;;;8.73;4.68;;;8.60;99.90;;;;;;5094929;28;20147;-73
2021/11/12 14:28:42;;;;;;;9.52;6.47;;;8.60;99.90;;;;;;5095332;28;20189;-74
2021/11/12 14:34:09;;;;;;;11.77;5.97;;;8.60;99.90;;;;;;5094201;28;20052;-75
2021/11/12 14:36:44;;;;;;;7.90;4.45;;;8.60;99.90;;;;;;5095681;28;20044;-75
2021/11/12 14:42:25;;;;;;;7.43;4.72;;;8.60;99.90;;;;;;5092405;28;20508;-76
2021/11/12 14:44:57;;;;;;;11.25;5.63;;;8.60;99.90;;;;;;5093758;28;20442;-75
2021/11/12 14:47:40;;;;;;;9.07;6.07;;;8.60;99.90;;;;;;5094196;28;20044;-76
2021/11/12 14:50:24;;;;;;;11.25;7.13;;;8.50;99.90;;;;;;5093796;28;20047;-74
2021/11/12 14:53:05;;;;;;;9.23;6.32;;;8.50;99.90;;;;;;5093911;28;20044;-75
2021/11/12 14:55:35;;;;;;;11.20;5.80;;;8.60;99.90;;;;;;5093630;28;20044;-75
2021/11/12 14:58:01;;;;;;;11.13;6.43;;;8.60;99.90;;;;;;5093845;28;20056;-75
2021/11/12 15:00:29;;;;;;;10.60;6.20;;;8.60;99.90;;;;;;5093839;28;20161;-75
2021/11/12 15:02:55;;;;;;;12.35;7.00;;;8.50;99.90;;;;;;5094106;28;20533;-73
2021/11/12 15:05:24;;;;;;;12.27;6.97;;;8.50;99.90;;;;;;5093097;28;20052;-75
2021/11/12 15:07:54;;;;;;;12.82;6.70;;;8.50;99.90;;;;;;5092434;28;20089;-75
2021/11/12 15:10:26;;;;;;;10.70;7.38;;;8.50;99.90;;;;;;5093215;28;20504;-75
2021/11/12 15:12:54;;;;;;;7.93;5.65;;;8.50;99.90;;;;;;5093418;28;20105;-74
2021/11/12 15:15:21;;;;;;;12.48;6.25;;;8.50;99.90;;;;;;5093066;28;20051;-74
2021/11/12 15:17:50;;;;;;;11.77;7.05;;;8.40;99.90;;;;;;5093384;28;20074;-76
2021/11/12 15:20:17;;;;;;;11.68;7.40;;;8.40;99.90;;;;;;5093240;28;20075;-76
2021/11/12 15:22:53;;;;;;;12.13;7.18;;;8.40;99.90;;;;;;5093166;28;20047;-75
2021/11/12 15:25:24;;;;;;;7.15;5.20;;;8.40;99.90;;;;;;5092769;28;20058;-76
2021/11/12 15:27:57;;;;;;;11.07;6.72;;;8.50;99.90;;;;;;5093229;28;20048;-75
2021/11/12 15:30:27;;;;;;;11.60;7.40;;;8.40;99.90;;;;;;5092945;28;20514;-76
2021/11/12 15:32:57;;;;;;;12.70;7.07;;;8.40;99.90;;;;;;5092727;28;20080;-73
2021/11/12 15:35:25;;;;;;;14.43;7.13;;;8.40;99.90;;;;;;5094601;28;20093;-74
2021/11/12 15:37:58;;;;;;;11.25;6.63;;;8.40;99.90;;;;;;5093039;28;20142;-74
2021/11/12 15:40:27;;;;;;;10.73;7.32;;;8.40;99.90;;;;;;5092903;28;20052;-74
2021/11/12 15:43:04;;;;;;;13.23;7.22;;;8.40;99.90;;;;;;5092611;28;20121;-74
2021/11/12 15:45:49;;;;;;;12.50;8.10;;;8.40;99.90;;;;;;5092775;28;20105;-77
2021/11/12 15:48:18;;;;;;;11.52;7.10;;;8.40;99.90;;;;;;5091597;28;20047;-76
2021/11/12 15:50:51;;;;;;;10.75;7.15;;;8.40;99.90;;;;;;5092574;28;20516;-76
2021/11/12 15:53:22;;;;;;;13.35;8.27;;;8.40;99.90;;;;;;5092386;28;20051;-75
2021/11/12 16:09:44;;;;;;;33.85;20.77;;;8.30;99.90;;;;;;5082915;28;20517;-75
2021/11/12 16:12:27;;;;;;;22.85;15.98;;;8.30;99.90;;;;;;5092559;28;20147;-77
2021/11/12 16:15:01;;;;;;;15.73;11.05;;;8.40;99.90;;;;;;5091923;28;20097;-76
2021/11/12 16:17:39;;;;;;;23.08;8.85;;;8.30;99.90;;;;;;5092705;28;20135;-76
2021/11/12 16:20:19;;;;;;;17.33;8.27;;;8.40;99.90;;;;;;5092354;28;20044;-76
2021/11/12 16:23:06;;;;;;;17.63;8.88;;;8.40;99.90;;;;;;5092298;28;20051;-76
2021/11/12 16:25:35;;;;;;;17.25;8.65;;;8.40;99.90;;;;;;5092656;28;20148;-76
2021/11/12 16:28:03;;;;;;;14.73;8.57;;;8.30;99.90;;;;;;5092286;28;20052;-75
2021/11/12 16:30:32;;;;;;;16.35;8.30;;;8.30;99.90;;;;;;5092168;28;20066;-75
2021/11/12 16:33:03;;;;;;;17.35;8.02;;;8.30;99.90;;;;;;5091902;28;20421;-73
2021/11/12 16:35:33;;;;;;;16.38;9.98;;;8.30;99.90;;;;;;5091585;28;20052;-76
2021/11/12 16:38:04;;;;;;;17.48;11.65;;;8.30;99.90;;;;;;5096968;28;20583;-74
2021/11/12 16:40:34;;;;;;;16.33;10.77;;;8.30;99.90;;;;;;5092151;28;20098;-75
2021/11/12 16:43:14;;;;;;;18.30;13.10;;;8.30;99.90;;;;;;5092145;28;20056;-75
2021/11/12 16:48:37;;;;;;;53.08;33.53;;;8.30;99.90;;;;;;5086581;28;20397;-77
2021/11/12 16:51:19;;;;;;;34.42;26.40;;;8.30;99.90;;;;;;5092145;28;20094;-76
2021/11/12 16:56:55;;;;;;;19.55;11.52;;;8.30;99.90;;;;;;5090544;28;20377;-78
2021/11/12 16:59:25;;;;;;;19.37;10.80;;;8.30;99.90;;;;;;5091847;28;20059;-76